ADDS METAR Data INFO
IDs: Format: Raw Decoded Include TAF

Data at: 0731 UTC 18 Oct 2017

KMKT 180656Z AUTO 17006KT 10SM CLR 10/07 A2990 RMK AO2 SLP127 T01000067
KMKT 180556Z AUTO 16007KT 10SM CLR 11/07 A2992 RMK AO2 SLP132 T01060067 10200 20106 402440056 58006
KMKT 180456Z AUTO 17005KT 10SM CLR 11/07 A2993 RMK AO2 SLP139 T01110067
KMKT 180356Z AUTO 18007KT 10SM CLR 13/07 A2993 RMK AO2 SLP140 T01330067
KMKT 180256Z AUTO 18006KT 10SM CLR 14/07 A2993 RMK AO2 SLP140 T01440067 50000
KMKT 180156Z AUTO 17007KT 10SM CLR 16/07 A2993 RMK AO2 SLP141 T01560067
KMKT 172356Z AUTO 18005KT 10SM CLR 20/03 A2994 RMK AO2 SLP140 T02000033 10244 20200 55002
KMKT 172256Z AUTO 22005KT 10SM CLR 22/03 A2993 RMK AO2 SLP139 T02220033
KMKT 172156Z AUTO 24009KT 10SM CLR 24/03 A2993 RMK AO2 SLP137 T02390033
KMKT 172056Z AUTO 19008KT 10SM CLR 24/05 A2994 RMK AO2 SLP140 T02440050 56028
KMKT 171956Z AUTO 23007KT 10SM CLR 23/05 A2997 RMK AO2 SLP149 T02330050
KMKT 171856Z AUTO 21008KT 10SM CLR 22/06 A3000 RMK AO2 SLP160 T02220056
KMKT 171756Z AUTO 22007KT 10SM CLR 20/06 A3003 RMK AO2 SLP170 T02000061 10200 20056 58005
KMKT 171656Z AUTO VRB06KT 10SM CLR 17/06 A3004 RMK AO2 SLP175 T01720061
KMKT 171556Z AUTO 17003KT 10SM CLR 14/06 A3004 RMK AO2 SLP177 T01440056
KMKT 171456Z AUTO 23005KT 10SM CLR 12/06 A3004 RMK AO2 SLP178 T01220056 53006 TSNO
KMKT 171356Z AUTO 19004KT 10SM CLR 08/04 A3004 RMK AO2 SLP176 T00780044
KMKT 171256Z AUTO 18004KT 10SM CLR 06/04 A3002 RMK AO2 SLP173 T00560039
KMKT 171156Z AUTO 17004KT 10SM CLR 07/04 A3003 RMK AO2 SLP173 T00670039 10111 20061 53005
KMKT 171056Z AUTO 19006KT 10SM CLR 07/04 A3002 RMK AO2 SLP169 T00720039
KMKT 170956Z AUTO 19005KT 10SM CLR 08/04 A3001 RMK AO2 SLP166 T00780039
KMKT 170856Z AUTO 19006KT 10SM CLR 08/04 A3001 RMK AO2 SLP165 T00830044 51006
KMKT 170756Z AUTO 18004KT 10SM CLR 09/04 A3001 RMK AO2 SLP165 T00890044
KMKT 170656Z AUTO 21005KT 10SM CLR 10/04 A3000 RMK AO2 SLP162 T01000044
KMKT 170556Z AUTO 18005KT 10SM CLR 11/04 A2999 RMK AO2 SLP159 T01110039 10156 20111 402060006 53000
KMKT 170456Z AUTO 21005KT 10SM CLR 12/04 A2999 RMK AO2 SLP160 T01220039
KMKT 170356Z AUTO 19008KT 10SM CLR 12/04 A2998 RMK AO2 SLP158 T01220039 TSNO
KMKT 170256Z AUTO 18007KT 10SM CLR 13/03 A2999 RMK AO2 SLP162 T01330033 56010
KMKT 170156Z AUTO 17007KT 10SM CLR 14/03 A3000 RMK AO2 SLP164 T01390028
KMKT 170056Z AUTO 17007KT 10SM CLR 15/03 A3001 RMK AO2 SLP171 T01500028
KMKT 162356Z AUTO 17005KT 10SM CLR 16/02 A3002 RMK AO2 SLP173 T01560022 10206 20156 56014
KMKT 162256Z AUTO 18006KT 10SM CLR 18/02 A3003 RMK AO2 SLP176 T01780017
KMKT 162156Z AUTO 21010G20KT 10SM CLR 20/01 A3004 RMK AO2 SLP177 T02000011
KMKT 162056Z AUTO 21013G17KT 10SM CLR 20/01 A3006 RMK AO2 SLP185 T02000011 56041
KMKT 161956Z AUTO 21014G19KT 10SM CLR 19/02 A3009 RMK AO2 SLP194 T01940017